Home   Weather   South Africa   Cape Town   Past weeks
Flag for South Africa

Past Weather in Cape Town, South Africa — Yesterday and Last 2 Weeks

Currently: 72 °F. Passing clouds. (Weather station: Cape Town International Airport, South Africa). See more current weather

Past Weather in Cape Town — Graph

°F

Cape Town Temperature Yesterday

Maximum temperature yesterday: 70 °F (at 1:34 pm)
Minimum temperature yesterday: 52 °F (at 3:00 am)
Average temperature yesterday: 61 °F

High & Low Weather Summary for the Past Weeks

 TemperatureHumidityPressure
High82 °F (Apr 14, 2:00 pm)100% (Apr 8, 6:43 am)30.27 "Hg (Apr 8, 6:43 am)
Low45 °F (Apr 12, 5:21 am)27% (Apr 12, 1:00 pm)29.83 "Hg (Apr 7, 6:32 pm)
Average63 °F75%30.03 "Hg
* Reported Apr 4 4:00 pm — Apr 19 4:00 pm, Cape Town. Weather by CustomWeather, © 2024

Note: Actual official high and low records may vary slightly from our data, if they occured in-between our weather recording intervals... More about our weather records

Cape Town Weather History for the Previous 24 Hours

Scroll right to see more
 ConditionsComfort  
Time TempWeatherWind HumidityBarometerVisibility
4:00 pm
Fri, Apr 19
72 °FPassing clouds.7 mph61%29.95 "HgN/A
3:00 pm70 °FSunny.10 mph64%29.95 "Hg10 mi
2:00 pm73 °FSunny.8 mph57%29.95 "Hg10 mi
1:03 pm75 °FPassing clouds.7 mph54%29.98 "HgN/A
12:00 pm70 °FPassing clouds.6 mph69%29.98 "HgN/A
11:20 am68 °FPassing clouds.5 mph69%30.01 "HgN/A
11:08 am64 °FClear.3 mph88%30.01 "Hg5 mi
10:26 am59 °FScattered clouds.2 mph100%30.01 "Hg4 mi
10:11 am59 °FFog.2 mph94%30.01 "Hg1 mi
9:28 am57 °FFog.6 mph100%30.04 "Hg1 mi
8:48 am55 °FFog.1 mph100%30.01 "Hg0 mi
8:32 am55 °FFog.3 mph100%30.01 "Hg0 mi
8:13 am55 °FFog.5 mph100%30.01 "Hg0 mi
8:00 am55 °FFog.5 mph94%30.01 "Hg0 mi
7:30 am54 °FFog.3 mph100%30.01 "Hg0 mi
7:18 am54 °FFog.5 mph100%30.01 "Hg0 mi
6:44 am54 °FFog.3 mph100%30.01 "Hg0 mi
6:17 am54 °FFog.3 mph100%30.01 "Hg0 mi
6:00 am54 °FFog.2 mph94%30.01 "Hg0 mi
5:44 am54 °FFog.2 mph100%30.01 "Hg0 mi
5:29 am54 °FFog.2 mph100%30.01 "Hg0 mi
5:16 am54 °FFog.2 mph100%30.01 "Hg0 mi
5:13 am54 °FFog.2 mph100%30.01 "Hg0 mi
4:39 am54 °FFog.1 mph100%30.01 "Hg0 mi
4:15 am54 °FFog.2 mph100%30.01 "Hg0 mi
3:57 am55 °FFog.2 mph94%30.01 "Hg0 mi
3:22 am55 °FFog.1 mph100%30.01 "Hg0 mi
3:16 am55 °FFog.1 mph100%30.01 "Hg0 mi
3:01 am55 °FFog.2 mph100%30.01 "Hg0 mi
2:21 am55 °FFog.3 mph100%30.01 "Hg0 mi
2:15 am55 °FFog.2 mph100%30.04 "Hg0 mi
1:51 am57 °FFog.5 mph94%30.04 "Hg0 mi
1:42 am57 °FFog.5 mph94%30.04 "Hg0 mi
1:32 am57 °FFog.5 mph94%30.04 "Hg0 mi
1:14 am57 °FFog.7 mph94%30.04 "Hg1 mi
1:11 am57 °FFog.7 mph94%30.04 "Hg1 mi
1:02 am57 °FFog.6 mph94%30.04 "Hg1 mi
12:22 am55 °FFog.7 mph100%30.04 "Hg0 mi
12:19 am55 °FFog.7 mph100%30.04 "Hg0 mi
11:21 pm
Thu, Apr 18
55 °FFog.9 mph100%30.07 "Hg0 mi
10:20 pm57 °FFog.9 mph100%30.07 "Hg1 mi
10:08 pm57 °FFog.10 mph100%30.07 "Hg1 mi
9:21 pm57 °FFog.14 mph100%30.07 "Hg1 mi
9:07 pm57 °FFog.14 mph100%30.07 "Hg1 mi
9:00 pm57 °FFog.14 mph100%30.07 "Hg1 mi
8:33 pm57 °FFog.14 mph100%30.07 "Hg1 mi
8:13 pm57 °FFog.13 mph100%30.07 "Hg1 mi
7:33 pm59 °FPassing clouds.13 mph88%30.07 "Hg4 mi
7:17 pm59 °FPassing clouds.10 mph88%30.07 "Hg5 mi
6:33 pm59 °FPassing clouds.13 mph94%30.07 "HgN/A
6:06 pm61 °FSunny.12 mph88%30.07 "Hg10 mi
6:00 pm63 °FSunny.12 mph83%30.07 "Hg10 mi
5:29 pm63 °FPassing clouds.13 mph83%30.07 "HgN/A
5:05 pm64 °FSunny.14 mph83%30.09 "Hg10 mi
5:02 pm64 °FSunny.14 mph83%30.09 "Hg10 mi
Weather by CustomWeather, © 2024

See weather overview